createdAt,value
2022-11-14T00:04:19.332Z,5.80
2022-11-14T00:09:26.663Z,5.73
2022-11-14T00:14:29.903Z,7.13
2022-11-14T00:19:33.280Z,7.70
2022-11-14T00:24:37.992Z,6.13
2022-11-14T00:29:44.880Z,6.43
2022-11-14T00:34:48.043Z,6.63
2022-11-14T00:39:52.689Z,7.43
2022-11-14T00:44:56.026Z,7.57
2022-11-14T00:49:59.263Z,7.50
2022-11-14T00:55:03.909Z,7.17
2022-11-14T01:00:09.439Z,6.10
2022-11-14T01:05:12.664Z,7.10
2022-11-14T01:10:17.565Z,7.27
2022-11-14T01:15:20.768Z,6.90
2022-11-14T01:20:24.218Z,7.13
2022-11-14T01:25:30.813Z,7.17
2022-11-14T01:30:34.000Z,6.43
2022-11-14T01:35:38.705Z,7.30
2022-11-14T01:47:06.703Z,6.77
2022-11-14T01:52:17.814Z,7.50
2022-11-14T01:57:26.616Z,6.07
2022-11-14T02:02:31.572Z,7.07
2022-11-14T02:07:37.848Z,7.27
2022-11-14T02:12:41.073Z,7.40
2022-11-14T02:17:46.053Z,7.17
2022-11-14T02:22:50.776Z,8.13
2022-11-14T02:27:54.642Z,7.47
2022-11-14T02:33:10.388Z,6.53
2022-11-14T02:38:15.874Z,6.43
2022-11-14T02:43:19.042Z,6.33
2022-11-14T02:48:22.364Z,5.57
2022-11-14T02:53:27.107Z,5.40
2022-11-14T02:58:30.559Z,6.10
2022-11-14T03:03:34.703Z,6.30
2022-11-14T03:08:39.321Z,7.03
2022-11-14T03:13:42.627Z,6.70
2022-11-14T03:18:45.771Z,6.83
2022-11-14T03:23:50.520Z,6.60
2022-11-14T03:28:55.319Z,6.73
2022-11-14T03:33:58.674Z,6.53
2022-11-14T03:39:03.984Z,5.60
2022-11-14T03:44:07.264Z,6.40
2022-11-14T03:49:10.526Z,6.70
2022-11-14T03:54:15.232Z,6.40
2022-11-14T03:59:18.512Z,6.47
2022-11-14T04:04:21.823Z,6.50
2022-11-14T04:09:26.533Z,5.80
2022-11-14T04:14:29.813Z,6.60
2022-11-14T04:19:33.097Z,7.37
2022-11-14T04:24:37.707Z,6.57
2022-11-14T04:29:40.961Z,7.20
2022-11-14T04:34:44.200Z,7.70
2022-11-14T04:39:48.715Z,7.10
2022-11-14T04:44:51.841Z,7.73
2022-11-14T04:49:55.124Z,6.70
2022-11-14T04:54:59.724Z,5.77
2022-11-14T05:00:02.975Z,5.57
2022-11-14T05:05:06.723Z,5.20
2022-11-14T05:10:12.098Z,6.03
2022-11-14T05:15:15.403Z,6.50
2022-11-14T05:20:18.792Z,5.90
2022-11-14T05:25:23.446Z,5.80
2022-11-14T05:30:26.647Z,5.47
2022-11-14T05:35:29.796Z,5.93
2022-11-14T05:40:34.297Z,5.40
2022-11-14T05:45:37.563Z,5.57
2022-11-14T05:50:40.831Z,8.07
2022-11-14T05:55:45.472Z,5.73
2022-11-14T06:00:53.622Z,4.63
2022-11-14T06:05:57.320Z,4.03
2022-11-14T06:11:05.710Z,5.03
2022-11-14T06:16:11.480Z,4.63
2022-11-14T06:21:16.300Z,4.80
2022-11-14T06:26:23.902Z,6.10
2022-11-14T06:31:27.626Z,8.33
2022-11-14T06:36:31.344Z,7.63
2022-11-14T06:41:35.988Z,8.47
2022-11-14T06:46:39.180Z,7.40
2022-11-14T06:51:42.366Z,6.53
2022-11-14T06:56:47.146Z,7.60
2022-11-14T07:01:50.272Z,5.63
2022-11-14T07:06:53.587Z,5.17
2022-11-14T07:11:58.123Z,5.37
2022-11-14T07:17:01.536Z,9.68
2022-11-14T07:22:04.888Z,5.60
2022-11-14T07:27:12.198Z,5.30
2022-11-14T07:32:15.662Z,6.17
2022-11-14T07:37:18.879Z,6.00
2022-11-14T07:42:23.485Z,7.57
2022-11-14T07:47:27.819Z,11.43
2022-11-14T07:52:31.821Z,6.70
2022-11-14T07:57:41.099Z,4.03
2022-11-14T08:02:47.252Z,2.73
2022-11-14T08:07:52.032Z,3.23
2022-11-14T08:13:25.175Z,2.42
2022-11-14T08:18:25.670Z,2.10
2022-11-14T08:23:37.291Z,1.85
2022-11-14T08:28:42.032Z,2.05
2022-11-14T08:33:45.226Z,1.63
2022-11-14T08:38:51.403Z,2.17
2022-11-14T08:43:57.170Z,1.50
2022-11-14T08:49:04.694Z,1.27
2022-11-14T08:54:07.968Z,1.42
2022-11-14T08:59:14.339Z,1.50
2022-11-14T09:04:20.352Z,1.17
2022-11-14T09:09:25.178Z,1.15
2022-11-14T09:14:37.864Z,1.10
2022-11-14T09:19:42.447Z,1.10
2022-11-14T09:24:49.553Z,0.90
2022-11-14T09:29:55.952Z,0.88
2022-11-14T09:35:02.137Z,0.82
2022-11-14T09:40:25.698Z,1.00
2022-11-14T09:45:37.316Z,0.70
2022-11-14T09:50:53.568Z,0.68
2022-11-14T09:56:03.942Z,0.52
2022-11-14T10:01:14.173Z,0.57
2022-11-14T10:06:31.166Z,0.73
2022-11-14T10:11:43.056Z,0.70
2022-11-14T10:16:58.168Z,0.52
2022-11-14T10:22:13.742Z,0.57
2022-11-14T10:27:21.720Z,0.50
2022-11-14T10:32:47.754Z,0.60
2022-11-14T10:38:00.335Z,0.43
2022-11-14T10:43:16.956Z,0.60
2022-11-14T10:48:31.577Z,0.50
2022-11-14T10:53:53.174Z,0.40
2022-11-14T10:58:56.487Z,0.70
2022-11-14T11:04:14.228Z,0.77
2022-11-14T11:09:43.952Z,0.30
2022-11-14T11:14:51.385Z,0.75
2022-11-14T11:19:55.961Z,0.52
2022-11-14T11:25:01.657Z,0.60
2022-11-14T11:30:19.565Z,0.90
2022-11-14T11:35:24.581Z,0.50
2022-11-14T11:40:32.624Z,0.70
2022-11-14T11:45:36.380Z,0.70
2022-11-14T11:50:51.005Z,0.70
2022-11-14T11:56:03.633Z,0.77
2022-11-14T12:01:11.417Z,1.00
2022-11-14T12:06:24.935Z,0.75
2022-11-14T12:11:31.685Z,0.60
2022-11-14T12:17:04.959Z,0.80
2022-11-14T12:22:29.675Z,0.60
2022-11-14T12:27:52.359Z,0.70
2022-11-14T12:33:01.193Z,0.80
2022-11-14T12:38:14.338Z,0.70
2022-11-14T12:43:36.925Z,0.63
2022-11-14T12:48:42.331Z,0.90
2022-11-14T12:53:47.349Z,0.80
2022-11-14T12:59:25.988Z,0.80
2022-11-14T13:04:41.626Z,0.60
2022-11-14T13:10:04.902Z,0.82
2022-11-14T13:15:49.860Z,0.95
2022-11-14T13:21:21.395Z,0.80
2022-11-14T13:26:44.623Z,1.00
2022-11-14T13:31:50.694Z,0.95
2022-11-14T13:37:00.382Z,1.00
2022-11-14T13:42:25.900Z,0.88
2022-11-14T13:47:52.491Z,0.90
2022-11-14T13:52:58.265Z,0.90
2022-11-14T13:58:15.884Z,1.00
2022-11-14T14:03:29.246Z,1.17
2022-11-14T14:08:57.393Z,1.00
2022-11-14T14:14:17.585Z,1.10
2022-11-14T14:19:28.782Z,0.85
2022-11-14T14:24:46.714Z,1.00
2022-11-14T14:30:01.484Z,1.08
2022-11-14T14:35:23.713Z,0.90
2022-11-14T14:40:29.297Z,1.00
2022-11-14T14:45:45.863Z,1.25
2022-11-14T14:50:51.997Z,1.23
2022-11-14T14:55:58.136Z,1.42
2022-11-14T15:01:06.408Z,1.15
2022-11-14T15:06:29.868Z,1.30
2022-11-14T15:11:33.760Z,1.52
2022-11-14T15:16:38.342Z,1.30
2022-11-14T15:21:41.577Z,1.42
2022-11-14T15:26:46.315Z,1.40
2022-11-14T15:31:53.811Z,1.17
2022-11-14T15:37:24.379Z,1.20
2022-11-14T15:42:29.950Z,1.50
2022-11-14T15:47:40.139Z,1.30
2022-11-14T15:52:55.289Z,1.45
2022-11-14T15:58:26.032Z,1.30
2022-11-14T16:03:24.394Z,1.33
2022-11-14T16:08:27.956Z,1.70
2022-11-14T16:13:31.610Z,1.60
2022-11-14T16:18:36.548Z,1.38
2022-11-14T16:23:40.055Z,1.67
2022-11-14T16:28:43.467Z,1.45
2022-11-14T16:33:48.317Z,1.48
2022-11-14T16:38:52.582Z,1.40
2022-11-14T16:43:56.823Z,1.45
2022-11-14T16:49:01.569Z,1.27
2022-11-14T16:54:05.723Z,1.52
2022-11-14T16:59:10.548Z,1.60
2022-11-14T17:04:15.922Z,1.40
2022-11-14T17:09:19.285Z,1.92
2022-11-14T17:14:22.493Z,2.35
2022-11-14T17:19:27.077Z,2.72
2022-11-14T17:24:31.618Z,1.98
2022-11-14T17:29:35.130Z,1.60
2022-11-14T17:34:39.732Z,2.10
2022-11-14T17:39:42.911Z,1.30
2022-11-14T17:44:46.110Z,1.50
2022-11-14T17:49:50.662Z,1.60
2022-11-14T17:54:53.901Z,1.70
2022-11-14T17:59:57.083Z,1.58
2022-11-14T18:05:01.655Z,1.42
2022-11-14T18:10:05.394Z,1.60
2022-11-14T18:15:09.244Z,1.70
2022-11-14T18:20:13.886Z,1.10
2022-11-14T18:25:17.322Z,1.25
2022-11-14T18:30:40.292Z,0.90
2022-11-14T18:35:45.196Z,1.48
2022-11-14T18:40:52.929Z,1.35
2022-11-14T18:46:06.629Z,2.40
2022-11-14T18:51:13.983Z,3.67
2022-11-14T18:56:20.194Z,3.83
2022-11-14T19:01:29.899Z,3.40
2022-11-14T19:06:36.539Z,4.38
2022-11-14T19:11:57.514Z,4.22
2022-11-14T19:17:01.211Z,3.30
2022-11-14T19:22:05.886Z,2.97
2022-11-14T19:27:09.022Z,3.40
2022-11-14T19:32:12.312Z,3.45
2022-11-14T19:37:16.817Z,3.58
2022-11-14T19:42:20.006Z,3.60
2022-11-14T19:47:23.282Z,4.47
2022-11-14T19:52:28.059Z,3.70
2022-11-14T19:57:32.038Z,3.78
2022-11-14T20:02:38.617Z,3.55
2022-11-14T20:07:43.195Z,3.72
2022-11-14T20:12:46.495Z,3.90
2022-11-14T20:17:49.761Z,5.18
2022-11-14T20:22:54.326Z,6.60
2022-11-14T20:27:57.590Z,5.50
2022-11-14T20:33:01.883Z,5.72
2022-11-14T20:38:08.113Z,5.07
2022-11-14T20:43:11.287Z,5.75
2022-11-14T20:48:14.751Z,5.60
2022-11-14T20:53:19.533Z,5.72
2022-11-14T20:58:22.758Z,6.05
2022-11-14T21:03:26.462Z,5.60
2022-11-14T21:08:34.316Z,6.10
2022-11-14T21:13:56.108Z,5.43
2022-11-14T21:18:59.902Z,4.05
2022-11-14T21:24:05.177Z,4.82
2022-11-14T21:29:11.177Z,4.20
2022-11-14T21:34:18.108Z,3.38
2022-11-14T21:39:22.648Z,3.38
2022-11-14T21:44:25.858Z,3.05
2022-11-14T21:49:29.093Z,3.35
2022-11-14T21:54:33.681Z,3.03
2022-11-14T21:59:36.814Z,3.00
2022-11-14T22:04:40.246Z,3.63
2022-11-14T22:09:45.857Z,3.28
2022-11-14T22:14:49.063Z,3.75
2022-11-14T22:19:52.312Z,3.37
2022-11-14T22:24:56.851Z,3.40
2022-11-14T22:30:00.033Z,4.03
2022-11-14T22:35:03.275Z,3.93
2022-11-14T22:40:09.769Z,3.60
2022-11-14T22:45:12.963Z,4.13
2022-11-14T22:50:16.475Z,3.63
2022-11-14T22:55:21.084Z,3.07
2022-11-14T23:00:24.321Z,2.37
2022-11-14T23:05:27.542Z,2.70
2022-11-14T23:10:34.872Z,2.53
2022-11-14T23:15:38.430Z,2.23
2022-11-14T23:20:41.717Z,2.60
2022-11-14T23:25:46.284Z,2.43
2022-11-14T23:30:49.540Z,3.40
2022-11-14T23:35:52.900Z,3.22
2022-11-14T23:40:59.042Z,3.20
2022-11-14T23:46:02.196Z,2.80
2022-11-14T23:51:05.563Z,3.83
2022-11-14T23:56:13.782Z,3.88
